sensor_id;sensor_type;location;lat;lon;timestamp;P1;durP1;ratioP1;P2;durP2;ratioP2
14015;SDS011;7083;48.854;9.158;2024-03-22T00:00:14;17.13;;;15.63;;
14015;SDS011;7083;48.854;9.158;2024-03-22T00:02:41;18.37;;;16.60;;
14015;SDS011;7083;48.854;9.158;2024-03-22T00:05:07;18.40;;;16.57;;
14015;SDS011;7083;48.854;9.158;2024-03-22T00:07:36;17.77;;;16.17;;
14015;SDS011;7083;48.854;9.158;2024-03-22T00:10:03;17.93;;;16.27;;
14015;SDS011;7083;48.854;9.158;2024-03-22T00:12:31;17.00;;;15.43;;
14015;SDS011;7083;48.854;9.158;2024-03-22T00:14:59;19.27;;;17.20;;
14015;SDS011;7083;48.854;9.158;2024-03-22T00:17:26;18.83;;;16.93;;
14015;SDS011;7083;48.854;9.158;2024-03-22T00:19:51;19.40;;;16.97;;
14015;SDS011;7083;48.854;9.158;2024-03-22T00:22:20;17.33;;;15.67;;
14015;SDS011;7083;48.854;9.158;2024-03-22T00:24:49;17.10;;;15.10;;
14015;SDS011;7083;48.854;9.158;2024-03-22T00:27:16;17.20;;;15.50;;
14015;SDS011;7083;48.854;9.158;2024-03-22T00:29:42;17.87;;;15.97;;
14015;SDS011;7083;48.854;9.158;2024-03-22T00:32:11;17.07;;;15.37;;
14015;SDS011;7083;48.854;9.158;2024-03-22T00:34:37;17.53;;;15.57;;
14015;SDS011;7083;48.854;9.158;2024-03-22T00:37:04;18.47;;;16.60;;
14015;SDS011;7083;48.854;9.158;2024-03-22T00:39:30;16.97;;;15.13;;
14015;SDS011;7083;48.854;9.158;2024-03-22T00:41:56;16.93;;;15.13;;
14015;SDS011;7083;48.854;9.158;2024-03-22T00:44:22;17.83;;;16.13;;
14015;SDS011;7083;48.854;9.158;2024-03-22T00:46:49;19.00;;;15.63;;
14015;SDS011;7083;48.854;9.158;2024-03-22T00:49:19;16.27;;;14.57;;
14015;SDS011;7083;48.854;9.158;2024-03-22T00:51:46;17.03;;;15.27;;
14015;SDS011;7083;48.854;9.158;2024-03-22T00:54:13;16.67;;;15.03;;
14015;SDS011;7083;48.854;9.158;2024-03-22T00:56:52;19.27;;;16.80;;
14015;SDS011;7083;48.854;9.158;2024-03-22T00:59:18;20.70;;;18.60;;
14015;SDS011;7083;48.854;9.158;2024-03-22T01:01:48;18.10;;;16.50;;
14015;SDS011;7083;48.854;9.158;2024-03-22T01:04:14;17.73;;;16.13;;
14015;SDS011;7083;48.854;9.158;2024-03-22T01:06:48;18.90;;;16.93;;
14015;SDS011;7083;48.854;9.158;2024-03-22T01:09:15;17.60;;;15.90;;
14015;SDS011;7083;48.854;9.158;2024-03-22T01:11:42;17.97;;;16.23;;
14015;SDS011;7083;48.854;9.158;2024-03-22T01:14:08;18.23;;;16.40;;
14015;SDS011;7083;48.854;9.158;2024-03-22T01:16:35;16.90;;;15.27;;
14015;SDS011;7083;48.854;9.158;2024-03-22T01:19:01;19.27;;;17.57;;
14015;SDS011;7083;48.854;9.158;2024-03-22T01:21:28;17.87;;;16.27;;
14015;SDS011;7083;48.854;9.158;2024-03-22T01:23:55;20.33;;;18.30;;
14015;SDS011;7083;48.854;9.158;2024-03-22T01:26:22;17.73;;;15.83;;
14015;SDS011;7083;48.854;9.158;2024-03-22T01:28:48;18.20;;;16.40;;
14015;SDS011;7083;48.854;9.158;2024-03-22T01:31:15;17.63;;;16.10;;
14015;SDS011;7083;48.854;9.158;2024-03-22T01:33:41;17.93;;;16.23;;
14015;SDS011;7083;48.854;9.158;2024-03-22T01:36:08;18.30;;;16.47;;
14015;SDS011;7083;48.854;9.158;2024-03-22T01:38:36;17.23;;;15.83;;
14015;SDS011;7083;48.854;9.158;2024-03-22T01:41:04;18.20;;;16.50;;
14015;SDS011;7083;48.854;9.158;2024-03-22T01:43:30;17.97;;;16.37;;
14015;SDS011;7083;48.854;9.158;2024-03-22T01:45:57;17.30;;;15.57;;
14015;SDS011;7083;48.854;9.158;2024-03-22T01:48:23;17.57;;;15.90;;
14015;SDS011;7083;48.854;9.158;2024-03-22T01:50:50;17.87;;;16.27;;
14015;SDS011;7083;48.854;9.158;2024-03-22T01:53:17;18.53;;;16.73;;
14015;SDS011;7083;48.854;9.158;2024-03-22T01:55:45;18.33;;;16.70;;
14015;SDS011;7083;48.854;9.158;2024-03-22T01:58:12;18.10;;;16.40;;
14015;SDS011;7083;48.854;9.158;2024-03-22T02:00:39;17.77;;;16.07;;
14015;SDS011;7083;48.854;9.158;2024-03-22T02:03:05;18.70;;;16.90;;
14015;SDS011;7083;48.854;9.158;2024-03-22T02:05:32;19.03;;;17.33;;
14015;SDS011;7083;48.854;9.158;2024-03-22T02:07:57;17.13;;;15.43;;
14015;SDS011;7083;48.854;9.158;2024-03-22T02:10:24;19.37;;;14.70;;
14015;SDS011;7083;48.854;9.158;2024-03-22T02:12:50;16.57;;;14.97;;
14015;SDS011;7083;48.854;9.158;2024-03-22T02:15:18;19.57;;;17.67;;
14015;SDS011;7083;48.854;9.158;2024-03-22T02:17:44;15.53;;;14.00;;
14015;SDS011;7083;48.854;9.158;2024-03-22T02:20:11;15.87;;;14.30;;
14015;SDS011;7083;48.854;9.158;2024-03-22T02:22:37;16.17;;;14.27;;
14015;SDS011;7083;48.854;9.158;2024-03-22T02:25:05;17.07;;;15.33;;
14015;SDS011;7083;48.854;9.158;2024-03-22T02:27:33;16.90;;;15.40;;
14015;SDS011;7083;48.854;9.158;2024-03-22T02:29:59;16.57;;;14.80;;
14015;SDS011;7083;48.854;9.158;2024-03-22T02:32:25;16.17;;;14.63;;
14015;SDS011;7083;48.854;9.158;2024-03-22T02:34:52;16.50;;;14.63;;
14015;SDS011;7083;48.854;9.158;2024-03-22T02:37:18;16.90;;;15.27;;
14015;SDS011;7083;48.854;9.158;2024-03-22T02:39:44;17.00;;;15.23;;
14015;SDS011;7083;48.854;9.158;2024-03-22T02:42:11;19.20;;;17.47;;
14015;SDS011;7083;48.854;9.158;2024-03-22T02:44:38;18.90;;;17.30;;
14015;SDS011;7083;48.854;9.158;2024-03-22T02:47:07;17.30;;;15.87;;
14015;SDS011;7083;48.854;9.158;2024-03-22T02:49:34;18.77;;;17.07;;
14015;SDS011;7083;48.854;9.158;2024-03-22T02:52:00;17.40;;;15.80;;
14015;SDS011;7083;48.854;9.158;2024-03-22T02:54:27;17.47;;;15.97;;
14015;SDS011;7083;48.854;9.158;2024-03-22T02:56:52;18.57;;;15.63;;
14015;SDS011;7083;48.854;9.158;2024-03-22T02:59:21;20.57;;;16.60;;
14015;SDS011;7083;48.854;9.158;2024-03-22T03:01:46;18.37;;;16.77;;
14015;SDS011;7083;48.854;9.158;2024-03-22T03:04:13;19.37;;;17.37;;
14015;SDS011;7083;48.854;9.158;2024-03-22T03:06:39;20.53;;;17.40;;
14015;SDS011;7083;48.854;9.158;2024-03-22T03:09:06;17.47;;;15.87;;
14015;SDS011;7083;48.854;9.158;2024-03-22T03:11:33;17.03;;;15.43;;
14015;SDS011;7083;48.854;9.158;2024-03-22T03:14:00;18.23;;;16.40;;
14015;SDS011;7083;48.854;9.158;2024-03-22T03:16:27;15.67;;;14.17;;
14015;SDS011;7083;48.854;9.158;2024-03-22T03:18:53;19.17;;;17.37;;
14015;SDS011;7083;48.854;9.158;2024-03-22T03:21:20;18.77;;;16.90;;
14015;SDS011;7083;48.854;9.158;2024-03-22T03:23:47;19.63;;;17.63;;
14015;SDS011;7083;48.854;9.158;2024-03-22T03:26:12;18.13;;;16.63;;
14015;SDS011;7083;48.854;9.158;2024-03-22T03:28:39;18.40;;;16.80;;
14015;SDS011;7083;48.854;9.158;2024-03-22T03:31:05;17.27;;;15.67;;
14015;SDS011;7083;48.854;9.158;2024-03-22T03:33:33;17.67;;;16.10;;
14015;SDS011;7083;48.854;9.158;2024-03-22T03:35:59;16.57;;;14.97;;
14015;SDS011;7083;48.854;9.158;2024-03-22T03:38:26;17.13;;;15.57;;
14015;SDS011;7083;48.854;9.158;2024-03-22T03:40:51;18.47;;;16.87;;
14015;SDS011;7083;48.854;9.158;2024-03-22T03:43:18;17.47;;;15.77;;
14015;SDS011;7083;48.854;9.158;2024-03-22T03:45:44;18.07;;;15.90;;
14015;SDS011;7083;48.854;9.158;2024-03-22T03:48:11;19.27;;;17.43;;
14015;SDS011;7083;48.854;9.158;2024-03-22T03:50:38;17.73;;;16.13;;
14015;SDS011;7083;48.854;9.158;2024-03-22T03:53:05;17.60;;;15.93;;
14015;SDS011;7083;48.854;9.158;2024-03-22T03:55:31;18.80;;;17.03;;
14015;SDS011;7083;48.854;9.158;2024-03-22T03:57:58;16.67;;;14.97;;
14015;SDS011;7083;48.854;9.158;2024-03-22T04:00:24;16.93;;;15.30;;
14015;SDS011;7083;48.854;9.158;2024-03-22T04:02:51;16.90;;;15.23;;
14015;SDS011;7083;48.854;9.158;2024-03-22T04:05:16;18.13;;;16.47;;
14015;SDS011;7083;48.854;9.158;2024-03-22T04:07:48;18.60;;;16.73;;
14015;SDS011;7083;48.854;9.158;2024-03-22T04:10:14;19.53;;;16.37;;
14015;SDS011;7083;48.854;9.158;2024-03-22T04:12:40;17.87;;;16.37;;
14015;SDS011;7083;48.854;9.158;2024-03-22T04:15:06;16.80;;;15.20;;
14015;SDS011;7083;48.854;9.158;2024-03-22T04:17:34;17.37;;;15.60;;
14015;SDS011;7083;48.854;9.158;2024-03-22T04:20:00;18.43;;;16.77;;
14015;SDS011;7083;48.854;9.158;2024-03-22T04:22:27;18.43;;;16.73;;
14015;SDS011;7083;48.854;9.158;2024-03-22T04:24:54;18.17;;;16.47;;
14015;SDS011;7083;48.854;9.158;2024-03-22T04:27:21;18.60;;;17.00;;
14015;SDS011;7083;48.854;9.158;2024-03-22T04:29:47;18.37;;;16.47;;
14015;SDS011;7083;48.854;9.158;2024-03-22T04:32:14;18.50;;;16.57;;
14015;SDS011;7083;48.854;9.158;2024-03-22T04:34:41;18.60;;;16.77;;
14015;SDS011;7083;48.854;9.158;2024-03-22T04:37:08;18.47;;;16.67;;
14015;SDS011;7083;48.854;9.158;2024-03-22T04:39:36;19.70;;;17.80;;
14015;SDS011;7083;48.854;9.158;2024-03-22T04:42:05;18.33;;;16.63;;
14015;SDS011;7083;48.854;9.158;2024-03-22T04:44:32;16.67;;;15.07;;
14015;SDS011;7083;48.854;9.158;2024-03-22T04:46:59;16.67;;;15.10;;
14015;SDS011;7083;48.854;9.158;2024-03-22T04:49:25;17.10;;;15.37;;
14015;SDS011;7083;48.854;9.158;2024-03-22T04:51:56;17.10;;;15.30;;
14015;SDS011;7083;48.854;9.158;2024-03-22T04:54:22;16.47;;;14.80;;
14015;SDS011;7083;48.854;9.158;2024-03-22T04:56:51;17.93;;;16.27;;
14015;SDS011;7083;48.854;9.158;2024-03-22T04:59:18;17.40;;;15.80;;
14015;SDS011;7083;48.854;9.158;2024-03-22T05:01:47;17.10;;;15.33;;
14015;SDS011;7083;48.854;9.158;2024-03-22T05:04:13;16.47;;;14.77;;
14015;SDS011;7083;48.854;9.158;2024-03-22T05:09:15;17.60;;;15.90;;
14015;SDS011;7083;48.854;9.158;2024-03-22T05:11:42;16.40;;;14.57;;
14015;SDS011;7083;48.854;9.158;2024-03-22T05:14:07;17.67;;;15.87;;
14015;SDS011;7083;48.854;9.158;2024-03-22T05:16:42;17.80;;;16.13;;
14015;SDS011;7083;48.854;9.158;2024-03-22T05:19:09;18.60;;;16.93;;
14015;SDS011;7083;48.854;9.158;2024-03-22T05:21:34;18.13;;;16.47;;
14015;SDS011;7083;48.854;9.158;2024-03-22T05:24:06;19.70;;;17.70;;
14015;SDS011;7083;48.854;9.158;2024-03-22T05:26:32;19.97;;;18.07;;
14015;SDS011;7083;48.854;9.158;2024-03-22T05:29:01;18.50;;;16.80;;
14015;SDS011;7083;48.854;9.158;2024-03-22T05:31:27;17.70;;;15.87;;
14015;SDS011;7083;48.854;9.158;2024-03-22T05:33:55;17.90;;;16.20;;
14015;SDS011;7083;48.854;9.158;2024-03-22T05:36:21;16.37;;;14.90;;
14015;SDS011;7083;48.854;9.158;2024-03-22T05:38:48;18.80;;;17.07;;
14015;SDS011;7083;48.854;9.158;2024-03-22T05:41:14;17.63;;;15.77;;
14015;SDS011;7083;48.854;9.158;2024-03-22T05:43:41;17.93;;;16.23;;
14015;SDS011;7083;48.854;9.158;2024-03-22T05:46:07;17.57;;;15.97;;
14015;SDS011;7083;48.854;9.158;2024-03-22T05:48:36;19.10;;;17.10;;
14015;SDS011;7083;48.854;9.158;2024-03-22T05:51:08;18.10;;;16.43;;
14015;SDS011;7083;48.854;9.158;2024-03-22T05:53:36;17.73;;;15.97;;
14015;SDS011;7083;48.854;9.158;2024-03-22T05:56:02;18.30;;;16.70;;
14015;SDS011;7083;48.854;9.158;2024-03-22T05:58:29;17.77;;;15.87;;
14015;SDS011;7083;48.854;9.158;2024-03-22T06:00:55;19.20;;;17.43;;
14015;SDS011;7083;48.854;9.158;2024-03-22T06:03:22;17.47;;;15.87;;
14015;SDS011;7083;48.854;9.158;2024-03-22T06:05:57;17.03;;;15.43;;
14015;SDS011;7083;48.854;9.158;2024-03-22T06:08:26;17.60;;;15.80;;
14015;SDS011;7083;48.854;9.158;2024-03-22T06:10:52;17.23;;;15.43;;
14015;SDS011;7083;48.854;9.158;2024-03-22T06:16:05;17.60;;;15.97;;
14015;SDS011;7083;48.854;9.158;2024-03-22T06:18:35;16.50;;;14.90;;
14015;SDS011;7083;48.854;9.158;2024-03-22T06:21:01;19.50;;;17.60;;
14015;SDS011;7083;48.854;9.158;2024-03-22T06:23:34;17.87;;;16.10;;
14015;SDS011;7083;48.854;9.158;2024-03-22T06:26:01;19.57;;;17.60;;
14015;SDS011;7083;48.854;9.158;2024-03-22T06:28:27;17.27;;;15.67;;
14015;SDS011;7083;48.854;9.158;2024-03-22T06:30:54;18.47;;;16.13;;
14015;SDS011;7083;48.854;9.158;2024-03-22T06:33:20;16.43;;;14.97;;
14015;SDS011;7083;48.854;9.158;2024-03-22T06:36:04;16.97;;;15.30;;
14015;SDS011;7083;48.854;9.158;2024-03-22T06:38:32;16.50;;;14.90;;
14015;SDS011;7083;48.854;9.158;2024-03-22T06:41:00;16.60;;;15.07;;
14015;SDS011;7083;48.854;9.158;2024-03-22T06:43:26;16.93;;;15.33;;
14015;SDS011;7083;48.854;9.158;2024-03-22T06:45:52;17.87;;;15.10;;
14015;SDS011;7083;48.854;9.158;2024-03-22T06:48:18;16.57;;;15.03;;
14015;SDS011;7083;48.854;9.158;2024-03-22T06:50:45;18.73;;;16.93;;
14015;SDS011;7083;48.854;9.158;2024-03-22T06:53:11;18.17;;;16.47;;
14015;SDS011;7083;48.854;9.158;2024-03-22T06:55:51;18.83;;;17.00;;
14015;SDS011;7083;48.854;9.158;2024-03-22T06:58:42;17.80;;;16.20;;
14015;SDS011;7083;48.854;9.158;2024-03-22T07:01:14;17.13;;;15.63;;
14015;SDS011;7083;48.854;9.158;2024-03-22T07:07:21;17.37;;;15.77;;
14015;SDS011;7083;48.854;9.158;2024-03-22T07:10:19;18.83;;;16.13;;
14015;SDS011;7083;48.854;9.158;2024-03-22T07:13:16;18.43;;;16.73;;
14015;SDS011;7083;48.854;9.158;2024-03-22T07:15:55;18.17;;;16.47;;
14015;SDS011;7083;48.854;9.158;2024-03-22T07:18:27;18.47;;;16.67;;
14015;SDS011;7083;48.854;9.158;2024-03-22T07:24:21;19.70;;;17.70;;
14015;SDS011;7083;48.854;9.158;2024-03-22T07:27:25;17.23;;;15.63;;
14015;SDS011;7083;48.854;9.158;2024-03-22T07:30:33;17.57;;;15.83;;
14015;SDS011;7083;48.854;9.158;2024-03-22T07:33:08;17.60;;;16.00;;
14015;SDS011;7083;48.854;9.158;2024-03-22T07:35:52;18.50;;;16.77;;
14015;SDS011;7083;48.854;9.158;2024-03-22T07:38:55;18.37;;;16.60;;
14015;SDS011;7083;48.854;9.158;2024-03-22T07:46:21;18.77;;;16.77;;
14015;SDS011;7083;48.854;9.158;2024-03-22T07:59:03;18.27;;;16.57;;
14015;SDS011;7083;48.854;9.158;2024-03-22T08:01:56;16.70;;;15.17;;
14015;SDS011;7083;48.854;9.158;2024-03-22T08:07:40;15.33;;;13.83;;
14015;SDS011;7083;48.854;9.158;2024-03-22T08:13:17;14.97;;;13.57;;
14015;SDS011;7083;48.854;9.158;2024-03-22T08:15:43;14.30;;;12.93;;
14015;SDS011;7083;48.854;9.158;2024-03-22T08:18:11;13.23;;;12.10;;
14015;SDS011;7083;48.854;9.158;2024-03-22T08:20:39;12.83;;;11.63;;
14015;SDS011;7083;48.854;9.158;2024-03-22T08:23:18;12.83;;;11.70;;
14015;SDS011;7083;48.854;9.158;2024-03-22T08:25:48;12.07;;;10.97;;
14015;SDS011;7083;48.854;9.158;2024-03-22T08:28:44;12.53;;;11.27;;
14015;SDS011;7083;48.854;9.158;2024-03-22T08:31:12;11.77;;;10.57;;
14015;SDS011;7083;48.854;9.158;2024-03-22T08:33:49;10.70;;;9.80;;
14015;SDS011;7083;48.854;9.158;2024-03-22T08:36:24;10.10;;;9.30;;
14015;SDS011;7083;48.854;9.158;2024-03-22T08:41:46;15.13;;;9.80;;
14015;SDS011;7083;48.854;9.158;2024-03-22T08:44:15;9.43;;;8.43;;
14015;SDS011;7083;48.854;9.158;2024-03-22T08:47:04;10.30;;;9.47;;
14015;SDS011;7083;48.854;9.158;2024-03-22T08:50:25;9.80;;;8.87;;
14015;SDS011;7083;48.854;9.158;2024-03-22T08:52:57;7.87;;;7.13;;
14015;SDS011;7083;48.854;9.158;2024-03-22T08:55:23;7.33;;;6.73;;
14015;SDS011;7083;48.854;9.158;2024-03-22T08:57:50;9.67;;;7.03;;
14015;SDS011;7083;48.854;9.158;2024-03-22T09:00:16;6.97;;;6.47;;
14015;SDS011;7083;48.854;9.158;2024-03-22T09:02:43;6.77;;;6.07;;
14015;SDS011;7083;48.854;9.158;2024-03-22T09:05:09;7.37;;;6.40;;
14015;SDS011;7083;48.854;9.158;2024-03-22T09:07:42;7.47;;;6.83;;
14015;SDS011;7083;48.854;9.158;2024-03-22T09:10:09;8.13;;;6.73;;
14015;SDS011;7083;48.854;9.158;2024-03-22T09:12:39;8.57;;;6.87;;
14015;SDS011;7083;48.854;9.158;2024-03-22T09:15:06;6.63;;;6.03;;
14015;SDS011;7083;48.854;9.158;2024-03-22T09:17:33;7.67;;;6.77;;
14015;SDS011;7083;48.854;9.158;2024-03-22T09:19:59;6.60;;;6.00;;
14015;SDS011;7083;48.854;9.158;2024-03-22T09:22:26;6.53;;;5.97;;
14015;SDS011;7083;48.854;9.158;2024-03-22T09:24:52;6.60;;;5.93;;
14015;SDS011;7083;48.854;9.158;2024-03-22T09:27:21;6.40;;;5.80;;
14015;SDS011;7083;48.854;9.158;2024-03-22T09:30:05;6.73;;;6.03;;
14015;SDS011;7083;48.854;9.158;2024-03-22T09:32:40;5.90;;;5.40;;
14015;SDS011;7083;48.854;9.158;2024-03-22T09:35:06;6.53;;;5.93;;
14015;SDS011;7083;48.854;9.158;2024-03-22T09:37:33;5.57;;;5.17;;
14015;SDS011;7083;48.854;9.158;2024-03-22T09:39:58;5.40;;;5.00;;
14015;SDS011;7083;48.854;9.158;2024-03-22T09:42:27;8.07;;;5.13;;
14015;SDS011;7083;48.854;9.158;2024-03-22T09:44:55;4.90;;;4.50;;
14015;SDS011;7083;48.854;9.158;2024-03-22T09:47:22;6.43;;;5.30;;
14015;SDS011;7083;48.854;9.158;2024-03-22T09:49:50;5.90;;;5.50;;
14015;SDS011;7083;48.854;9.158;2024-03-22T09:52:18;4.90;;;4.60;;
14015;SDS011;7083;48.854;9.158;2024-03-22T09:54:45;4.90;;;4.33;;
14015;SDS011;7083;48.854;9.158;2024-03-22T09:57:13;4.93;;;4.53;;
14015;SDS011;7083;48.854;9.158;2024-03-22T09:59:42;5.03;;;4.63;;
14015;SDS011;7083;48.854;9.158;2024-03-22T10:02:10;5.90;;;4.90;;
14015;SDS011;7083;48.854;9.158;2024-03-22T10:04:37;5.13;;;4.73;;
14015;SDS011;7083;48.854;9.158;2024-03-22T10:07:04;5.30;;;4.73;;
14015;SDS011;7083;48.854;9.158;2024-03-22T10:09:29;6.27;;;5.67;;
14015;SDS011;7083;48.854;9.158;2024-03-22T10:11:58;5.20;;;4.90;;
14015;SDS011;7083;48.854;9.158;2024-03-22T10:14:26;8.40;;;4.63;;
14015;SDS011;7083;48.854;9.158;2024-03-22T10:17:03;6.57;;;5.93;;
14015;SDS011;7083;48.854;9.158;2024-03-22T10:19:29;5.57;;;5.07;;
14015;SDS011;7083;48.854;9.158;2024-03-22T10:22:05;5.27;;;4.77;;
14015;SDS011;7083;48.854;9.158;2024-03-22T10:24:39;4.90;;;4.60;;
14015;SDS011;7083;48.854;9.158;2024-03-22T10:27:15;9.03;;;5.50;;
14015;SDS011;7083;48.854;9.158;2024-03-22T10:30:13;4.83;;;4.53;;
14015;SDS011;7083;48.854;9.158;2024-03-22T10:32:57;7.33;;;4.80;;
14015;SDS011;7083;48.854;9.158;2024-03-22T10:35:32;5.47;;;5.17;;
14015;SDS011;7083;48.854;9.158;2024-03-22T10:37:59;6.30;;;5.57;;
14015;SDS011;7083;48.854;9.158;2024-03-22T10:40:27;6.60;;;5.67;;
14015;SDS011;7083;48.854;9.158;2024-03-22T10:42:53;4.53;;;4.23;;
14015;SDS011;7083;48.854;9.158;2024-03-22T10:45:20;5.87;;;5.47;;
14015;SDS011;7083;48.854;9.158;2024-03-22T10:47:50;5.37;;;4.97;;
14015;SDS011;7083;48.854;9.158;2024-03-22T10:50:22;5.97;;;5.40;;
14015;SDS011;7083;48.854;9.158;2024-03-22T10:52:50;6.07;;;4.80;;
14015;SDS011;7083;48.854;9.158;2024-03-22T10:55:19;5.80;;;5.07;;
14015;SDS011;7083;48.854;9.158;2024-03-22T10:57:47;5.17;;;4.70;;
14015;SDS011;7083;48.854;9.158;2024-03-22T11:00:16;5.30;;;4.90;;
14015;SDS011;7083;48.854;9.158;2024-03-22T11:02:54;6.03;;;5.53;;
14015;SDS011;7083;48.854;9.158;2024-03-22T11:05:25;6.20;;;5.67;;
14015;SDS011;7083;48.854;9.158;2024-03-22T11:07:58;5.63;;;5.20;;
14015;SDS011;7083;48.854;9.158;2024-03-22T11:10:26;6.07;;;5.47;;
14015;SDS011;7083;48.854;9.158;2024-03-22T11:12:55;6.83;;;6.13;;
14015;SDS011;7083;48.854;9.158;2024-03-22T11:15:22;5.13;;;4.73;;
14015;SDS011;7083;48.854;9.158;2024-03-22T11:17:47;4.80;;;4.40;;
14015;SDS011;7083;48.854;9.158;2024-03-22T11:20:14;5.40;;;4.90;;
14015;SDS011;7083;48.854;9.158;2024-03-22T11:22:41;5.77;;;4.90;;
14015;SDS011;7083;48.854;9.158;2024-03-22T11:25:08;4.60;;;4.30;;
14015;SDS011;7083;48.854;9.158;2024-03-22T11:27:40;5.97;;;4.70;;
14015;SDS011;7083;48.854;9.158;2024-03-22T11:30:07;5.37;;;4.87;;
14015;SDS011;7083;48.854;9.158;2024-03-22T11:32:34;5.47;;;4.20;;
14015;SDS011;7083;48.854;9.158;2024-03-22T11:35:13;4.03;;;3.73;;
14015;SDS011;7083;48.854;9.158;2024-03-22T11:37:41;3.67;;;3.30;;
14015;SDS011;7083;48.854;9.158;2024-03-22T11:40:08;4.63;;;4.13;;
14015;SDS011;7083;48.854;9.158;2024-03-22T11:42:35;3.50;;;3.30;;
14015;SDS011;7083;48.854;9.158;2024-03-22T11:45:01;4.50;;;4.17;;
14015;SDS011;7083;48.854;9.158;2024-03-22T11:47:29;4.53;;;4.20;;
14015;SDS011;7083;48.854;9.158;2024-03-22T11:49:55;4.07;;;3.70;;
14015;SDS011;7083;48.854;9.158;2024-03-22T11:52:23;5.17;;;3.73;;
14015;SDS011;7083;48.854;9.158;2024-03-22T11:54:51;3.27;;;3.07;;
14015;SDS011;7083;48.854;9.158;2024-03-22T11:57:19;5.03;;;3.47;;
14015;SDS011;7083;48.854;9.158;2024-03-22T11:59:58;5.43;;;3.23;;
14015;SDS011;7083;48.854;9.158;2024-03-22T12:03:08;3.13;;;2.93;;
14015;SDS011;7083;48.854;9.158;2024-03-22T12:05:35;3.50;;;3.20;;
14015;SDS011;7083;48.854;9.158;2024-03-22T12:08:01;2.70;;;2.50;;
14015;SDS011;7083;48.854;9.158;2024-03-22T12:10:29;2.87;;;2.67;;
14015;SDS011;7083;48.854;9.158;2024-03-22T12:12:55;2.80;;;2.47;;
14015;SDS011;7083;48.854;9.158;2024-03-22T12:15:22;4.10;;;2.77;;
14015;SDS011;7083;48.854;9.158;2024-03-22T12:17:47;3.13;;;2.93;;
14015;SDS011;7083;48.854;9.158;2024-03-22T12:20:14;2.43;;;2.30;;
14015;SDS011;7083;48.854;9.158;2024-03-22T12:22:40;2.90;;;2.70;;
14015;SDS011;7083;48.854;9.158;2024-03-22T12:25:07;2.47;;;2.37;;
14015;SDS011;7083;48.854;9.158;2024-03-22T12:27:36;3.10;;;2.60;;
14015;SDS011;7083;48.854;9.158;2024-03-22T12:30:03;3.47;;;3.27;;
14015;SDS011;7083;48.854;9.158;2024-03-22T12:32:30;2.30;;;2.20;;
14015;SDS011;7083;48.854;9.158;2024-03-22T12:34:56;3.93;;;2.80;;
14015;SDS011;7083;48.854;9.158;2024-03-22T12:37:22;2.87;;;2.60;;
14015;SDS011;7083;48.854;9.158;2024-03-22T12:39:49;2.90;;;2.70;;
14015;SDS011;7083;48.854;9.158;2024-03-22T12:42:14;2.53;;;2.33;;
14015;SDS011;7083;48.854;9.158;2024-03-22T12:44:43;4.43;;;2.83;;
14015;SDS011;7083;48.854;9.158;2024-03-22T12:47:09;2.83;;;2.40;;
14015;SDS011;7083;48.854;9.158;2024-03-22T12:49:36;6.30;;;3.67;;
14015;SDS011;7083;48.854;9.158;2024-03-22T12:52:02;7.57;;;3.63;;
14015;SDS011;7083;48.854;9.158;2024-03-22T12:54:28;3.00;;;2.80;;
14015;SDS011;7083;48.854;9.158;2024-03-22T12:56:54;3.20;;;2.90;;
14015;SDS011;7083;48.854;9.158;2024-03-22T12:59:21;5.70;;;2.90;;
14015;SDS011;7083;48.854;9.158;2024-03-22T13:01:48;3.37;;;2.00;;
14015;SDS011;7083;48.854;9.158;2024-03-22T13:04:15;3.80;;;3.50;;
14015;SDS011;7083;48.854;9.158;2024-03-22T13:06:42;4.23;;;3.23;;
14015;SDS011;7083;48.854;9.158;2024-03-22T13:09:09;3.13;;;2.83;;
14015;SDS011;7083;48.854;9.158;2024-03-22T13:11:35;4.40;;;2.93;;
14015;SDS011;7083;48.854;9.158;2024-03-22T13:14:02;2.63;;;2.43;;
14015;SDS011;7083;48.854;9.158;2024-03-22T13:16:28;3.83;;;2.80;;
14015;SDS011;7083;48.854;9.158;2024-03-22T13:18:56;3.10;;;2.90;;
14015;SDS011;7083;48.854;9.158;2024-03-22T13:21:22;3.27;;;2.97;;
14015;SDS011;7083;48.854;9.158;2024-03-22T13:23:48;2.93;;;2.73;;
14015;SDS011;7083;48.854;9.158;2024-03-22T13:26:15;4.13;;;3.20;;
14015;SDS011;7083;48.854;9.158;2024-03-22T13:28:41;3.70;;;3.40;;
14015;SDS011;7083;48.854;9.158;2024-03-22T13:31:08;3.53;;;3.20;;
14015;SDS011;7083;48.854;9.158;2024-03-22T13:33:34;7.10;;;3.30;;
14015;SDS011;7083;48.854;9.158;2024-03-22T13:36:02;4.10;;;3.70;;
14015;SDS011;7083;48.854;9.158;2024-03-22T13:38:29;6.33;;;3.40;;
14015;SDS011;7083;48.854;9.158;2024-03-22T13:40:56;4.23;;;3.83;;
14015;SDS011;7083;48.854;9.158;2024-03-22T13:43:23;3.63;;;3.43;;
14015;SDS011;7083;48.854;9.158;2024-03-22T13:45:52;3.43;;;3.10;;
14015;SDS011;7083;48.854;9.158;2024-03-22T13:48:19;5.73;;;3.00;;
14015;SDS011;7083;48.854;9.158;2024-03-22T13:50:48;5.57;;;3.57;;
14015;SDS011;7083;48.854;9.158;2024-03-22T13:53:16;3.83;;;3.47;;
14015;SDS011;7083;48.854;9.158;2024-03-22T13:55:42;12.23;;;3.47;;
14015;SDS011;7083;48.854;9.158;2024-03-22T13:58:08;6.50;;;3.87;;
14015;SDS011;7083;48.854;9.158;2024-03-22T14:00:35;4.00;;;3.67;;
14015;SDS011;7083;48.854;9.158;2024-03-22T14:03:01;3.40;;;3.13;;
14015;SDS011;7083;48.854;9.158;2024-03-22T14:05:28;4.00;;;2.93;;
14015;SDS011;7083;48.854;9.158;2024-03-22T14:07:54;3.80;;;3.10;;
14015;SDS011;7083;48.854;9.158;2024-03-22T14:10:22;2.77;;;2.53;;
14015;SDS011;7083;48.854;9.158;2024-03-22T14:12:50;2.73;;;2.47;;
14015;SDS011;7083;48.854;9.158;2024-03-22T14:15:16;4.07;;;2.10;;
14015;SDS011;7083;48.854;9.158;2024-03-22T14:17:43;2.87;;;2.60;;
14015;SDS011;7083;48.854;9.158;2024-03-22T14:20:10;2.23;;;1.97;;
14015;SDS011;7083;48.854;9.158;2024-03-22T14:22:36;1.80;;;1.70;;
14015;SDS011;7083;48.854;9.158;2024-03-22T14:25:04;8.73;;;2.03;;
14015;SDS011;7083;48.854;9.158;2024-03-22T14:27:32;2.50;;;2.10;;
14015;SDS011;7083;48.854;9.158;2024-03-22T14:29:58;2.63;;;1.53;;
14015;SDS011;7083;48.854;9.158;2024-03-22T14:32:25;2.63;;;1.97;;
14015;SDS011;7083;48.854;9.158;2024-03-22T14:34:51;2.30;;;1.90;;
14015;SDS011;7083;48.854;9.158;2024-03-22T14:37:18;2.20;;;2.03;;
14015;SDS011;7083;48.854;9.158;2024-03-22T14:39:44;2.03;;;1.83;;
14015;SDS011;7083;48.854;9.158;2024-03-22T14:42:11;2.20;;;2.00;;
14015;SDS011;7083;48.854;9.158;2024-03-22T14:44:39;2.83;;;1.83;;
14015;SDS011;7083;48.854;9.158;2024-03-22T14:47:05;2.00;;;1.90;;
14015;SDS011;7083;48.854;9.158;2024-03-22T14:49:32;1.90;;;1.80;;
14015;SDS011;7083;48.854;9.158;2024-03-22T14:51:58;2.07;;;1.97;;
14015;SDS011;7083;48.854;9.158;2024-03-22T14:54:25;2.43;;;1.77;;
14015;SDS011;7083;48.854;9.158;2024-03-22T14:56:51;3.30;;;1.93;;
14015;SDS011;7083;48.854;9.158;2024-03-22T14:59:18;2.83;;;1.57;;
14015;SDS011;7083;48.854;9.158;2024-03-22T15:01:55;1.60;;;1.50;;
14015;SDS011;7083;48.854;9.158;2024-03-22T15:04:24;2.70;;;1.70;;
14015;SDS011;7083;48.854;9.158;2024-03-22T15:06:50;1.43;;;1.33;;
14015;SDS011;7083;48.854;9.158;2024-03-22T15:09:17;1.90;;;1.80;;
14015;SDS011;7083;48.854;9.158;2024-03-22T15:11:43;1.93;;;1.83;;
14015;SDS011;7083;48.854;9.158;2024-03-22T15:14:10;1.87;;;1.77;;
14015;SDS011;7083;48.854;9.158;2024-03-22T15:16:36;2.13;;;2.03;;
14015;SDS011;7083;48.854;9.158;2024-03-22T15:19:04;2.50;;;2.40;;
14015;SDS011;7083;48.854;9.158;2024-03-22T15:21:30;3.50;;;2.43;;
14015;SDS011;7083;48.854;9.158;2024-03-22T15:23:57;2.47;;;2.10;;
14015;SDS011;7083;48.854;9.158;2024-03-22T15:26:23;2.20;;;2.00;;
14015;SDS011;7083;48.854;9.158;2024-03-22T15:28:50;2.77;;;2.50;;
14015;SDS011;7083;48.854;9.158;2024-03-22T15:31:15;2.90;;;2.67;;